sensor_id;sensor_type;location;lat;lon;timestamp;pressure;altitude;pressure_sealevel;temperature;humidity
11329;BME280;5719;42.714;23.732;2023-04-25T00:00:26;93716.06;;;12.69;100.00
11329;BME280;5719;42.714;23.732;2023-04-25T00:02:52;93714.66;;;12.75;100.00
11329;BME280;5719;42.714;23.732;2023-04-25T00:05:21;93721.72;;;12.83;100.00
11329;BME280;5719;42.714;23.732;2023-04-25T00:07:48;93714.34;;;12.88;100.00
11329;BME280;5719;42.714;23.732;2023-04-25T00:10:15;93712.28;;;12.91;100.00
11329;BME280;5719;42.714;23.732;2023-04-25T00:12:44;93715.75;;;12.82;100.00
11329;BME280;5719;42.714;23.732;2023-04-25T00:15:11;93721.41;;;12.58;100.00
11329;BME280;5719;42.714;23.732;2023-04-25T00:17:38;93725.66;;;12.59;100.00
11329;BME280;5719;42.714;23.732;2023-04-25T00:20:06;93722.75;;;12.62;100.00
11329;BME280;5719;42.714;23.732;2023-04-25T00:22:34;93723.97;;;12.68;100.00
11329;BME280;5719;42.714;23.732;2023-04-25T00:25:03;93717.97;;;12.67;100.00
11329;BME280;5719;42.714;23.732;2023-04-25T00:27:30;93710.88;;;12.69;100.00
11329;BME280;5719;42.714;23.732;2023-04-25T00:29:58;93708.94;;;12.71;100.00
11329;BME280;5719;42.714;23.732;2023-04-25T00:32:25;93711.13;;;12.76;100.00
11329;BME280;5719;42.714;23.732;2023-04-25T00:34:52;93715.22;;;12.78;100.00
11329;BME280;5719;42.714;23.732;2023-04-25T00:37:19;93713.59;;;12.68;100.00
11329;BME280;5719;42.714;23.732;2023-04-25T00:39:46;93694.66;;;12.67;100.00
11329;BME280;5719;42.714;23.732;2023-04-25T00:42:13;93690.41;;;12.66;100.00
11329;BME280;5719;42.714;23.732;2023-04-25T00:44:40;93680.34;;;12.54;100.00
11329;BME280;5719;42.714;23.732;2023-04-25T00:47:11;93679.16;;;12.48;100.00
11329;BME280;5719;42.714;23.732;2023-04-25T00:49:38;93667.47;;;12.35;100.00
11329;BME280;5719;42.714;23.732;2023-04-25T00:52:05;93667.34;;;12.17;100.00
11329;BME280;5719;42.714;23.732;2023-04-25T00:54:32;93665.72;;;12.06;100.00
11329;BME280;5719;42.714;23.732;2023-04-25T00:56:59;93660.69;;;12.05;100.00
11329;BME280;5719;42.714;23.732;2023-04-25T00:59:27;93654.53;;;12.06;100.00
11329;BME280;5719;42.714;23.732;2023-04-25T01:01:55;93664.66;;;12.09;100.00
11329;BME280;5719;42.714;23.732;2023-04-25T01:04:23;93659.84;;;12.14;100.00
11329;BME280;5719;42.714;23.732;2023-04-25T01:06:51;93653.31;;;12.19;100.00
11329;BME280;5719;42.714;23.732;2023-04-25T01:09:18;93643.59;;;12.21;100.00
11329;BME280;5719;42.714;23.732;2023-04-25T01:11:46;93632.72;;;12.08;100.00
11329;BME280;5719;42.714;23.732;2023-04-25T01:14:12;93638.59;;;12.10;100.00
11329;BME280;5719;42.714;23.732;2023-04-25T01:16:39;93635.56;;;12.15;100.00
11329;BME280;5719;42.714;23.732;2023-04-25T01:19:09;93622.63;;;12.15;100.00
11329;BME280;5719;42.714;23.732;2023-04-25T01:21:38;93625.75;;;12.18;100.00
11329;BME280;5719;42.714;23.732;2023-04-25T01:24:06;93623.81;;;12.20;100.00
11329;BME280;5719;42.714;23.732;2023-04-25T01:26:33;93623.03;;;12.20;100.00
11329;BME280;5719;42.714;23.732;2023-04-25T01:29:01;93627.22;;;12.21;100.00
11329;BME280;5719;42.714;23.732;2023-04-25T01:31:30;93623.31;;;12.07;100.00
11329;BME280;5719;42.714;23.732;2023-04-25T01:33:57;93622.78;;;12.04;100.00
11329;BME280;5719;42.714;23.732;2023-04-25T01:36:24;93621.44;;;11.80;100.00
11329;BME280;5719;42.714;23.732;2023-04-25T01:38:55;93617.91;;;11.62;100.00
11329;BME280;5719;42.714;23.732;2023-04-25T01:41:22;93622.28;;;11.62;100.00
11329;BME280;5719;42.714;23.732;2023-04-25T01:43:49;93616.41;;;11.50;100.00
11329;BME280;5719;42.714;23.732;2023-04-25T01:46:16;93612.72;;;11.33;100.00
11329;BME280;5719;42.714;23.732;2023-04-25T01:48:43;93613.94;;;11.29;100.00
11329;BME280;5719;42.714;23.732;2023-04-25T01:51:10;93603.19;;;11.34;100.00
11329;BME280;5719;42.714;23.732;2023-04-25T01:53:38;93599.25;;;11.30;100.00
11329;BME280;5719;42.714;23.732;2023-04-25T01:56:07;93593.66;;;11.35;100.00
11329;BME280;5719;42.714;23.732;2023-04-25T01:58:33;93589.44;;;11.33;100.00
11329;BME280;5719;42.714;23.732;2023-04-25T02:01:00;93594.06;;;11.30;100.00
11329;BME280;5719;42.714;23.732;2023-04-25T02:03:27;93588.63;;;11.23;100.00
11329;BME280;5719;42.714;23.732;2023-04-25T02:05:54;93581.28;;;11.28;100.00
11329;BME280;5719;42.714;23.732;2023-04-25T02:08:21;93578.53;;;11.30;100.00
11329;BME280;5719;42.714;23.732;2023-04-25T02:10:48;93579.53;;;11.29;100.00
11329;BME280;5719;42.714;23.732;2023-04-25T02:13:16;93572.97;;;11.25;100.00
11329;BME280;5719;42.714;23.732;2023-04-25T02:15:43;93574.88;;;11.23;100.00
11329;BME280;5719;42.714;23.732;2023-04-25T02:18:10;93575.81;;;11.41;100.00
11329;BME280;5719;42.714;23.732;2023-04-25T02:20:37;93569.69;;;11.52;100.00
11329;BME280;5719;42.714;23.732;2023-04-25T02:23:04;93565.56;;;11.59;100.00
11329;BME280;5719;42.714;23.732;2023-04-25T02:25:30;93572.25;;;11.52;100.00
11329;BME280;5719;42.714;23.732;2023-04-25T02:27:57;93574.44;;;11.56;100.00
11329;BME280;5719;42.714;23.732;2023-04-25T02:30:26;93570.88;;;11.67;100.00
11329;BME280;5719;42.714;23.732;2023-04-25T02:32:53;93563.56;;;11.72;100.00
11329;BME280;5719;42.714;23.732;2023-04-25T02:35:19;93565.47;;;11.79;100.00
11329;BME280;5719;42.714;23.732;2023-04-25T02:37:46;93562.72;;;11.81;100.00
11329;BME280;5719;42.714;23.732;2023-04-25T02:40:13;93563.00;;;11.78;100.00
11329;BME280;5719;42.714;23.732;2023-04-25T02:42:40;93565.88;;;11.65;100.00
11329;BME280;5719;42.714;23.732;2023-04-25T02:45:08;93563.00;;;11.49;100.00
11329;BME280;5719;42.714;23.732;2023-04-25T02:47:36;93547.09;;;11.15;100.00
11329;BME280;5719;42.714;23.732;2023-04-25T02:50:04;93548.59;;;11.18;100.00
11329;BME280;5719;42.714;23.732;2023-04-25T02:52:31;93551.19;;;11.18;100.00
11329;BME280;5719;42.714;23.732;2023-04-25T02:54:58;93546.28;;;10.96;100.00
11329;BME280;5719;42.714;23.732;2023-04-25T02:57:25;93539.59;;;10.83;100.00
11329;BME280;5719;42.714;23.732;2023-04-25T02:59:52;93541.63;;;10.80;100.00
11329;BME280;5719;42.714;23.732;2023-04-25T03:02:19;93536.19;;;10.73;100.00
11329;BME280;5719;42.714;23.732;2023-04-25T03:04:47;93537.63;;;10.47;100.00
11329;BME280;5719;42.714;23.732;2023-04-25T03:07:14;93537.47;;;10.39;100.00
11329;BME280;5719;42.714;23.732;2023-04-25T03:09:41;93547.28;;;10.45;100.00
11329;BME280;5719;42.714;23.732;2023-04-25T03:12:08;93546.63;;;10.53;100.00
11329;BME280;5719;42.714;23.732;2023-04-25T03:14:35;93553.16;;;10.57;100.00
11329;BME280;5719;42.714;23.732;2023-04-25T03:17:02;93550.72;;;10.65;100.00
11329;BME280;5719;42.714;23.732;2023-04-25T03:19:29;93547.91;;;10.77;100.00
11329;BME280;5719;42.714;23.732;2023-04-25T03:21:57;93555.09;;;10.83;100.00
11329;BME280;5719;42.714;23.732;2023-04-25T03:24:24;93556.19;;;10.91;100.00
11329;BME280;5719;42.714;23.732;2023-04-25T03:26:52;93546.69;;;10.91;100.00
11329;BME280;5719;42.714;23.732;2023-04-25T03:29:19;93553.06;;;10.97;100.00
11329;BME280;5719;42.714;23.732;2023-04-25T03:31:49;93552.13;;;10.98;100.00
11329;BME280;5719;42.714;23.732;2023-04-25T03:34:16;93547.78;;;10.98;100.00
11329;BME280;5719;42.714;23.732;2023-04-25T03:36:43;93551.03;;;11.00;100.00
11329;BME280;5719;42.714;23.732;2023-04-25T03:39:11;93550.75;;;10.94;100.00
11329;BME280;5719;42.714;23.732;2023-04-25T03:41:38;93545.75;;;10.92;100.00
11329;BME280;5719;42.714;23.732;2023-04-25T03:44:05;93551.69;;;10.73;100.00
11329;BME280;5719;42.714;23.732;2023-04-25T03:46:32;93554.72;;;10.39;100.00
11329;BME280;5719;42.714;23.732;2023-04-25T03:48:59;93547.28;;;10.05;100.00
11329;BME280;5719;42.714;23.732;2023-04-25T03:51:26;93540.75;;;9.80;100.00
11329;BME280;5719;42.714;23.732;2023-04-25T03:53:52;93547.28;;;9.84;100.00
11329;BME280;5719;42.714;23.732;2023-04-25T03:56:21;93547.28;;;9.84;100.00
11329;BME280;5719;42.714;23.732;2023-04-25T03:58:50;93558.91;;;10.00;100.00
11329;BME280;5719;42.714;23.732;2023-04-25T04:01:16;93556.72;;;10.16;100.00
11329;BME280;5719;42.714;23.732;2023-04-25T04:03:43;93546.03;;;10.09;100.00
11329;BME280;5719;42.714;23.732;2023-04-25T04:06:10;93558.16;;;10.09;100.00
11329;BME280;5719;42.714;23.732;2023-04-25T04:08:38;93552.22;;;10.18;100.00
11329;BME280;5719;42.714;23.732;2023-04-25T04:11:05;93554.53;;;10.21;100.00
11329;BME280;5719;42.714;23.732;2023-04-25T04:13:33;93549.72;;;10.37;100.00
11329;BME280;5719;42.714;23.732;2023-04-25T04:16:00;93555.88;;;10.55;100.00
11329;BME280;5719;42.714;23.732;2023-04-25T04:18:27;93546.94;;;10.69;100.00
11329;BME280;5719;42.714;23.732;2023-04-25T04:20:54;93558.38;;;10.86;100.00
11329;BME280;5719;42.714;23.732;2023-04-25T04:23:21;93543.81;;;10.94;100.00
11329;BME280;5719;42.714;23.732;2023-04-25T04:25:48;93548.03;;;11.05;100.00
11329;BME280;5719;42.714;23.732;2023-04-25T04:28:15;93538.53;;;10.96;100.00
11329;BME280;5719;42.714;23.732;2023-04-25T04:30:44;93539.06;;;10.80;100.00
11329;BME280;5719;42.714;23.732;2023-04-25T04:33:12;93545.31;;;10.97;100.00
11329;BME280;5719;42.714;23.732;2023-04-25T04:35:41;93549.41;;;11.18;100.00
11329;BME280;5719;42.714;23.732;2023-04-25T04:38:08;93557.03;;;11.29;100.00
11329;BME280;5719;42.714;23.732;2023-04-25T04:40:36;93562.88;;;11.41;100.00
11329;BME280;5719;42.714;23.732;2023-04-25T04:43:03;93564.50;;;11.52;100.00
11329;BME280;5719;42.714;23.732;2023-04-25T04:45:30;93561.91;;;11.71;100.00
11329;BME280;5719;42.714;23.732;2023-04-25T04:47:58;93562.41;;;11.94;100.00
11329;BME280;5719;42.714;23.732;2023-04-25T04:50:25;93559.66;;;12.05;100.00
11329;BME280;5719;42.714;23.732;2023-04-25T04:52:53;93564.56;;;12.08;100.00
11329;BME280;5719;42.714;23.732;2023-04-25T04:55:20;93567.03;;;12.09;100.00
11329;BME280;5719;42.714;23.732;2023-04-25T04:57:47;93571.56;;;12.25;100.00
11329;BME280;5719;42.714;23.732;2023-04-25T05:00:15;93566.84;;;12.48;100.00
11329;BME280;5719;42.714;23.732;2023-04-25T05:02:42;93562.72;;;12.55;100.00
11329;BME280;5719;42.714;23.732;2023-04-25T05:05:10;93561.81;;;12.73;100.00
11329;BME280;5719;42.714;23.732;2023-04-25T05:07:37;93563.75;;;12.89;100.00
11329;BME280;5719;42.714;23.732;2023-04-25T05:10:05;93568.56;;;13.11;100.00
11329;BME280;5719;42.714;23.732;2023-04-25T05:12:32;93571.69;;;13.33;100.00
11329;BME280;5719;42.714;23.732;2023-04-25T05:14:59;93563.88;;;13.33;100.00
11329;BME280;5719;42.714;23.732;2023-04-25T05:17:25;93564.94;;;13.40;100.00
11329;BME280;5719;42.714;23.732;2023-04-25T05:19:52;93563.88;;;13.50;100.00
11329;BME280;5719;42.714;23.732;2023-04-25T05:22:21;93559.72;;;13.57;100.00
11329;BME280;5719;42.714;23.732;2023-04-25T05:24:47;93571.56;;;13.60;100.00
11329;BME280;5719;42.714;23.732;2023-04-25T05:27:17;93560.09;;;13.62;100.00
11329;BME280;5719;42.714;23.732;2023-04-25T05:29:44;93563.94;;;13.58;100.00
11329;BME280;5719;42.714;23.732;2023-04-25T05:32:11;93568.31;;;13.58;100.00
11329;BME280;5719;42.714;23.732;2023-04-25T05:34:38;93566.31;;;13.52;100.00
11329;BME280;5719;42.714;23.732;2023-04-25T05:37:05;93562.63;;;13.54;100.00
11329;BME280;5719;42.714;23.732;2023-04-25T05:39:33;93560.84;;;13.55;100.00
11329;BME280;5719;42.714;23.732;2023-04-25T05:42:00;93565.88;;;13.56;100.00
11329;BME280;5719;42.714;23.732;2023-04-25T05:44:29;93554.16;;;13.52;100.00
11329;BME280;5719;42.714;23.732;2023-04-25T05:46:56;93565.75;;;13.40;100.00
11329;BME280;5719;42.714;23.732;2023-04-25T05:49:23;93560.41;;;13.24;100.00
11329;BME280;5719;42.714;23.732;2023-04-25T05:51:50;93558.63;;;13.24;100.00
11329;BME280;5719;42.714;23.732;2023-04-25T05:54:17;93567.53;;;13.22;100.00
11329;BME280;5719;42.714;23.732;2023-04-25T05:56:46;93563.63;;;13.08;100.00
11329;BME280;5719;42.714;23.732;2023-04-25T05:59:12;93576.56;;;13.18;100.00
11329;BME280;5719;42.714;23.732;2023-04-25T06:01:40;93569.75;;;13.17;100.00
11329;BME280;5719;42.714;23.732;2023-04-25T06:04:06;93562.59;;;13.19;100.00
11329;BME280;5719;42.714;23.732;2023-04-25T06:06:33;93578.88;;;13.21;100.00
11329;BME280;5719;42.714;23.732;2023-04-25T06:09:00;93568.06;;;13.25;100.00
11329;BME280;5719;42.714;23.732;2023-04-25T06:11:27;93568.56;;;13.29;100.00
11329;BME280;5719;42.714;23.732;2023-04-25T06:13:55;93564.97;;;13.30;100.00
11329;BME280;5719;42.714;23.732;2023-04-25T06:16:22;93561.00;;;13.36;100.00
11329;BME280;5719;42.714;23.732;2023-04-25T06:18:51;93563.41;;;13.37;100.00
11329;BME280;5719;42.714;23.732;2023-04-25T06:21:18;93565.44;;;13.43;100.00
11329;BME280;5719;42.714;23.732;2023-04-25T06:23:45;93570.03;;;13.49;100.00
11329;BME280;5719;42.714;23.732;2023-04-25T06:26:12;93558.59;;;13.60;100.00
11329;BME280;5719;42.714;23.732;2023-04-25T06:28:39;93564.00;;;13.66;100.00
11329;BME280;5719;42.714;23.732;2023-04-25T06:31:08;93574.44;;;13.74;100.00
11329;BME280;5719;42.714;23.732;2023-04-25T06:33:35;93566.72;;;13.83;100.00
11329;BME280;5719;42.714;23.732;2023-04-25T06:36:02;93575.09;;;13.94;100.00
11329;BME280;5719;42.714;23.732;2023-04-25T06:38:29;93572.25;;;14.05;100.00
11329;BME280;5719;42.714;23.732;2023-04-25T06:40:56;93577.00;;;14.18;100.00
11329;BME280;5719;42.714;23.732;2023-04-25T06:43:23;93575.47;;;14.33;100.00
11329;BME280;5719;42.714;23.732;2023-04-25T06:45:50;93575.88;;;14.38;100.00
11329;BME280;5719;42.714;23.732;2023-04-25T06:48:18;93577.22;;;14.50;100.00
11329;BME280;5719;42.714;23.732;2023-04-25T06:50:45;93569.06;;;14.45;100.00
11329;BME280;5719;42.714;23.732;2023-04-25T06:53:12;93569.25;;;14.52;100.00
11329;BME280;5719;42.714;23.732;2023-04-25T06:55:39;93570.13;;;14.60;100.00
11329;BME280;5719;42.714;23.732;2023-04-25T06:58:06;93567.41;;;14.78;100.00
11329;BME280;5719;42.714;23.732;2023-04-25T07:00:33;93569.88;;;14.88;100.00
11329;BME280;5719;42.714;23.732;2023-04-25T07:03:00;93576.56;;;14.98;96.58
11329;BME280;5719;42.714;23.732;2023-04-25T07:05:29;93570.75;;;15.12;96.79
11329;BME280;5719;42.714;23.732;2023-04-25T07:07:56;93575.03;;;15.30;95.29
11329;BME280;5719;42.714;23.732;2023-04-25T07:10:22;93573.72;;;15.42;90.80
11329;BME280;5719;42.714;23.732;2023-04-25T07:12:50;93573.31;;;15.54;88.82
11329;BME280;5719;42.714;23.732;2023-04-25T07:15:17;93572.16;;;15.73;89.89
11329;BME280;5719;42.714;23.732;2023-04-25T07:17:44;93561.91;;;15.88;89.68
11329;BME280;5719;42.714;23.732;2023-04-25T07:20:11;93570.50;;;16.04;87.72
11329;BME280;5719;42.714;23.732;2023-04-25T07:22:39;93566.13;;;16.05;85.45
11329;BME280;5719;42.714;23.732;2023-04-25T07:25:07;93567.75;;;15.90;84.61
11329;BME280;5719;42.714;23.732;2023-04-25T07:27:34;93572.31;;;15.63;86.28
11329;BME280;5719;42.714;23.732;2023-04-25T07:30:01;93570.22;;;15.59;86.01
11329;BME280;5719;42.714;23.732;2023-04-25T07:32:29;93577.84;;;15.60;89.33
11329;BME280;5719;42.714;23.732;2023-04-25T07:34:56;93578.03;;;15.51;88.87
11329;BME280;5719;42.714;23.732;2023-04-25T07:37:23;93567.22;;;15.30;86.38
11329;BME280;5719;42.714;23.732;2023-04-25T07:39:52;93569.66;;;15.31;87.40
11329;BME280;5719;42.714;23.732;2023-04-25T07:42:19;93569.97;;;15.28;85.99
11329;BME280;5719;42.714;23.732;2023-04-25T07:44:46;93569.63;;;15.07;89.84
11329;BME280;5719;42.714;23.732;2023-04-25T07:47:13;93568.00;;;15.30;90.20
11329;BME280;5719;42.714;23.732;2023-04-25T07:49:40;93562.88;;;15.62;85.39
11329;BME280;5719;42.714;23.732;2023-04-25T07:52:10;93571.31;;;15.89;85.91
11329;BME280;5719;42.714;23.732;2023-04-25T07:54:37;93567.13;;;15.80;85.03
11329;BME280;5719;42.714;23.732;2023-04-25T07:57:05;93558.78;;;15.92;84.68
11329;BME280;5719;42.714;23.732;2023-04-25T07:59:32;93559.59;;;16.09;84.29
11329;BME280;5719;42.714;23.732;2023-04-25T08:02:00;93562.81;;;16.19;80.88
11329;BME280;5719;42.714;23.732;2023-04-25T08:04:28;93559.66;;;16.40;83.22
11329;BME280;5719;42.714;23.732;2023-04-25T08:06:54;93569.38;;;16.78;80.30
11329;BME280;5719;42.714;23.732;2023-04-25T08:09:21;93569.44;;;17.01;78.70
11329;BME280;5719;42.714;23.732;2023-04-25T08:11:49;93570.06;;;17.03;77.42
11329;BME280;5719;42.714;23.732;2023-04-25T08:14:17;93573.53;;;17.26;76.25
11329;BME280;5719;42.714;23.732;2023-04-25T08:16:44;93576.81;;;17.51;78.82
11329;BME280;5719;42.714;23.732;2023-04-25T08:19:11;93574.34;;;17.80;75.71
11329;BME280;5719;42.714;23.732;2023-04-25T08:21:38;93577.56;;;17.37;73.58
11329;BME280;5719;42.714;23.732;2023-04-25T08:24:05;93572.13;;;17.38;76.85
11329;BME280;5719;42.714;23.732;2023-04-25T08:26:32;93578.34;;;17.68;73.68
11329;BME280;5719;42.714;23.732;2023-04-25T08:28:59;93582.41;;;17.71;70.46
11329;BME280;5719;42.714;23.732;2023-04-25T08:31:28;93575.63;;;17.31;70.30
11329;BME280;5719;42.714;23.732;2023-04-25T08:33:55;93572.81;;;17.09;74.62
11329;BME280;5719;42.714;23.732;2023-04-25T08:36:22;93572.53;;;17.58;72.74
11329;BME280;5719;42.714;23.732;2023-04-25T08:38:49;93571.78;;;17.41;68.62
11329;BME280;5719;42.714;23.732;2023-04-25T08:41:16;93563.81;;;17.88;69.12
11329;BME280;5719;42.714;23.732;2023-04-25T08:43:44;93551.56;;;18.55;69.70
11329;BME280;5719;42.714;23.732;2023-04-25T08:46:11;93557.16;;;18.82;68.62
11329;BME280;5719;42.714;23.732;2023-04-25T08:48:42;93558.56;;;18.40;69.28
11329;BME280;5719;42.714;23.732;2023-04-25T08:51:16;93558.50;;;18.78;67.59
11329;BME280;5719;42.714;23.732;2023-04-25T08:53:50;93550.16;;;19.39;63.25
11329;BME280;5719;42.714;23.732;2023-04-25T08:56:17;93552.63;;;19.41;59.35
11329;BME280;5719;42.714;23.732;2023-04-25T08:58:48;93552.53;;;18.84;58.95
11329;BME280;5719;42.714;23.732;2023-04-25T09:01:15;93556.78;;;18.03;67.07
11329;BME280;5719;42.714;23.732;2023-04-25T09:03:43;93550.13;;;18.68;64.93
11329;BME280;5719;42.714;23.732;2023-04-25T09:06:12;93546.03;;;18.50;62.37
11329;BME280;5719;42.714;23.732;2023-04-25T09:08:41;93548.72;;;17.76;65.21
11329;BME280;5719;42.714;23.732;2023-04-25T09:11:08;93546.03;;;17.84;66.64
11329;BME280;5719;42.714;23.732;2023-04-25T09:13:35;93543.75;;;17.66;66.33
11329;BME280;5719;42.714;23.732;2023-04-25T09:16:02;93545.63;;;17.95;63.04
11329;BME280;5719;42.714;23.732;2023-04-25T09:18:30;93553.72;;;18.00;57.49
11329;BME280;5719;42.714;23.732;2023-04-25T09:21:06;93558.88;;;18.08;63.32
11329;BME280;5719;42.714;23.732;2023-04-25T09:23:39;93568.56;;;17.39;64.83
11329;BME280;5719;42.714;23.732;2023-04-25T09:26:06;93577.09;;;17.56;67.36
11329;BME280;5719;42.714;23.732;2023-04-25T09:28:34;93584.25;;;16.61;63.81
11329;BME280;5719;42.714;23.732;2023-04-25T09:31:01;93590.16;;;15.26;70.98
11329;BME280;5719;42.714;23.732;2023-04-25T09:33:29;93605.88;;;14.58;77.55
11329;BME280;5719;42.714;23.732;2023-04-25T09:36:03;93605.53;;;13.84;83.58
11329;BME280;5719;42.714;23.732;2023-04-25T09:38:31;93598.88;;;13.64;90.58
11329;BME280;5719;42.714;23.732;2023-04-25T09:40:59;93590.47;;;13.88;90.06
11329;BME280;5719;42.714;23.732;2023-04-25T09:43:27;93565.78;;;13.66;88.43
11329;BME280;5719;42.714;23.732;2023-04-25T09:45:54;93552.78;;;13.92;87.35
11329;BME280;5719;42.714;23.732;2023-04-25T09:48:26;93556.53;;;14.15;92.16
11329;BME280;5719;42.714;23.732;2023-04-25T09:51:09;93535.47;;;15.18;94.70
11329;BME280;5719;42.714;23.732;2023-04-25T09:53:37;93542.09;;;16.26;81.66
11329;BME280;5719;42.714;23.732;2023-04-25T09:56:06;93534.75;;;17.15;70.76
11329;BME280;5719;42.714;23.732;2023-04-25T09:58:33;93532.31;;;18.34;59.88
11329;BME280;5719;42.714;23.732;2023-04-25T10:01:02;93532.06;;;18.73;77.78
11329;BME280;5719;42.714;23.732;2023-04-25T10:03:30;93536.22;;;18.82;74.65
11329;BME280;5719;42.714;23.732;2023-04-25T10:05:59;93531.22;;;19.37;75.36
11329;BME280;5719;42.714;23.732;2023-04-25T10:08:31;93532.06;;;20.08;64.00
11329;BME280;5719;42.714;23.732;2023-04-25T10:11:00;93529.84;;;20.67;62.94
11329;BME280;5719;42.714;23.732;2023-04-25T10:13:28;93521.63;;;21.24;56.09
11329;BME280;5719;42.714;23.732;2023-04-25T10:15:57;93521.25;;;21.27;57.69
11329;BME280;5719;42.714;23.732;2023-04-25T10:18:25;93524.88;;;21.26;56.45
11329;BME280;5719;42.714;23.732;2023-04-25T10:20:54;93532.53;;;21.15;52.21
11329;BME280;5719;42.714;23.732;2023-04-25T10:23:21;93524.50;;;21.36;53.76
11329;BME280;5719;42.714;23.732;2023-04-25T10:25:52;93532.63;;;21.61;52.36
11329;BME280;5719;42.714;23.732;2023-04-25T10:28:20;93524.97;;;21.72;50.06
11329;BME280;5719;42.714;23.732;2023-04-25T10:31:01;93519.28;;;21.75;49.30
11329;BME280;5719;42.714;23.732;2023-04-25T10:33:36;93517.47;;;21.63;50.70
11329;BME280;5719;42.714;23.732;2023-04-25T10:36:11;93519.06;;;21.50;49.75
11329;BME280;5719;42.714;23.732;2023-04-25T10:38:39;93517.84;;;21.46;50.33
11329;BME280;5719;42.714;23.732;2023-04-25T10:41:08;93517.00;;;21.26;52.02
11329;BME280;5719;42.714;23.732;2023-04-25T10:43:37;93514.22;;;20.52;52.73
11329;BME280;5719;42.714;23.732;2023-04-25T10:46:15;93510.09;;;20.16;55.88
11329;BME280;5719;42.714;23.732;2023-04-25T10:48:47;93512.47;;;19.19;59.83
11329;BME280;5719;42.714;23.732;2023-04-25T10:51:20;93505.16;;;18.35;58.17
11329;BME280;5719;42.714;23.732;2023-04-25T10:53:57;93525.09;;;17.38;69.08
11329;BME280;5719;42.714;23.732;2023-04-25T10:56:28;93524.19;;;16.78;75.37
11329;BME280;5719;42.714;23.732;2023-04-25T10:59:06;93519.78;;;16.31;78.08
11329;BME280;5719;42.714;23.732;2023-04-25T11:01:38;93520.50;;;15.93;81.46
11329;BME280;5719;42.714;23.732;2023-04-25T11:04:05;93528.34;;;15.77;83.29
11329;BME280;5719;42.714;23.732;2023-04-25T11:06:42;93539.69;;;15.27;90.54
11329;BME280;5719;42.714;23.732;2023-04-25T11:09:11;93543.78;;;15.38;87.44
11329;BME280;5719;42.714;23.732;2023-04-25T11:11:40;93558.38;;;15.06;82.88
11329;BME280;5719;42.714;23.732;2023-04-25T11:14:07;93555.94;;;14.97;87.18
11329;BME280;5719;42.714;23.732;2023-04-25T11:16:34;93558.22;;;15.16;84.66
11329;BME280;5719;42.714;23.732;2023-04-25T11:19:02;93549.56;;;14.91;84.32
11329;BME280;5719;42.714;23.732;2023-04-25T11:21:30;93551.34;;;14.91;88.73
11329;BME280;5719;42.714;23.732;2023-04-25T11:23:59;93556.63;;;15.15;89.43
11329;BME280;5719;42.714;23.732;2023-04-25T11:26:26;93550.84;;;14.87;91.25
11329;BME280;5719;42.714;23.732;2023-04-25T11:28:58;93526.34;;;15.38;89.06
11329;BME280;5719;42.714;23.732;2023-04-25T11:31:26;93524.41;;;16.05;82.50
11329;BME280;5719;42.714;23.732;2023-04-25T11:33:53;93520.66;;;16.62;83.58
11329;BME280;5719;42.714;23.732;2023-04-25T11:36:22;93513.28;;;17.50;82.64
11329;BME280;5719;42.714;23.732;2023-04-25T11:38:49;93506.41;;;18.09;77.95
11329;BME280;5719;42.714;23.732;2023-04-25T11:41:17;93503.84;;;18.53;79.58
11329;BME280;5719;42.714;23.732;2023-04-25T11:43:44;93494.84;;;18.77;64.58
11329;BME280;5719;42.714;23.732;2023-04-25T11:46:12;93490.69;;;18.83;70.56
11329;BME280;5719;42.714;23.732;2023-04-25T11:48:40;93484.41;;;19.34;74.08
11329;BME280;5719;42.714;23.732;2023-04-25T11:51:07;93482.47;;;19.64;65.68
11329;BME280;5719;42.714;23.732;2023-04-25T11:53:34;93473.84;;;19.98;61.43
11329;BME280;5719;42.714;23.732;2023-04-25T11:56:01;93464.94;;;20.20;53.76
11329;BME280;5719;42.714;23.732;2023-04-25T11:58:28;93475.16;;;20.84;56.69
11329;BME280;5719;42.714;23.732;2023-04-25T12:00:56;93471.13;;;20.40;56.42
11329;BME280;5719;42.714;23.732;2023-04-25T12:03:26;93459.91;;;20.60;54.80
11329;BME280;5719;42.714;23.732;2023-04-25T12:06:02;93468.31;;;20.83;52.10
11329;BME280;5719;42.714;23.732;2023-04-25T12:08:30;93462.06;;;20.90;53.83
11329;BME280;5719;42.714;23.732;2023-04-25T12:10:58;93462.38;;;20.68;50.38
11329;BME280;5719;42.714;23.732;2023-04-25T12:13:26;93457.94;;;19.99;52.19
11329;BME280;5719;42.714;23.732;2023-04-25T12:15:54;93456.97;;;19.79;54.78
11329;BME280;5719;42.714;23.732;2023-04-25T12:18:23;93454.31;;;19.73;56.40
11329;BME280;5719;42.714;23.732;2023-04-25T12:20:54;93450.72;;;18.74;56.13
11329;BME280;5719;42.714;23.732;2023-04-25T12:23:25;93460.53;;;17.70;55.84
11329;BME280;5719;42.714;23.732;2023-04-25T12:25:53;93456.97;;;17.25;63.27
11329;BME280;5719;42.714;23.732;2023-04-25T12:28:22;93455.97;;;17.86;60.43
11329;BME280;5719;42.714;23.732;2023-04-25T12:30:54;93456.06;;;18.22;60.38
11329;BME280;5719;42.714;23.732;2023-04-25T12:33:21;93460.19;;;19.11;58.60
11329;BME280;5719;42.714;23.732;2023-04-25T12:35:48;93453.25;;;18.68;54.86
11329;BME280;5719;42.714;23.732;2023-04-25T12:38:22;93465.81;;;18.57;57.02
11329;BME280;5719;42.714;23.732;2023-04-25T12:40:49;93456.44;;;18.04;59.76
11329;BME280;5719;42.714;23.732;2023-04-25T12:43:16;93467.41;;;17.25;61.92
11329;BME280;5719;42.714;23.732;2023-04-25T12:45:44;93463.41;;;17.75;65.51
11329;BME280;5719;42.714;23.732;2023-04-25T12:48:11;93464.34;;;17.22;65.25
11329;BME280;5719;42.714;23.732;2023-04-25T12:50:38;93474.28;;;16.73;68.77
11329;BME280;5719;42.714;23.732;2023-04-25T12:53:05;93474.06;;;16.43;70.70
11329;BME280;5719;42.714;23.732;2023-04-25T12:55:33;93477.56;;;16.66;71.99
11329;BME280;5719;42.714;23.732;2023-04-25T12:58:00;93474.66;;;16.92;71.43